logo dgac
Jueves 21 de Septiembre del 2017
Buscar por aerodromo o helipuerto
Ingrese nombre de aeródromo, localidad o designador OACI:
METAR del 22-09-2017 a las 00:00 UTC
METAR SCIE 220000Z 22012KT CAVOK 12/07 Q1024
Viento: dirección 220 grados, velocidad 12 nudos
Visibilidad: 10 km o más,
    sin nubes bajo los 5.000 pies o bajo del MSA (Mínimo de Seguridad del Aeródromo),
    sin cumulonimbus, y sin fenómenos de tiempo significativo en el aeródromo o alrededores
Temperatura: 12 °C
Rocío: 7 °C
Humedad_relativa: 71%
Presión: 1024 hPa
METAR del 21-09-2017 a las 23:00 UTC
METAR SCIE 212300Z 22013KT CAVOK 12/08 Q1024
Viento: dirección 220 grados, velocidad 13 nudos
Visibilidad: 10 km o más,
    sin nubes bajo los 5.000 pies o bajo del MSA (Mínimo de Seguridad del Aeródromo),
    sin cumulonimbus, y sin fenómenos de tiempo significativo en el aeródromo o alrededores
Temperatura: 12 °C
Rocío: 8 °C
Humedad_relativa: 77%
Presión: 1024 hPa
METAR del 21-09-2017 a las 22:00 UTC
METAR SCIE 212200Z 23014KT CAVOK 14/08 Q1023
Viento: dirección 230 grados, velocidad 14 nudos
Visibilidad: 10 km o más,
    sin nubes bajo los 5.000 pies o bajo del MSA (Mínimo de Seguridad del Aeródromo),
    sin cumulonimbus, y sin fenómenos de tiempo significativo en el aeródromo o alrededores
Temperatura: 14 °C
Rocío: 8 °C
Humedad_relativa: 67%
Presión: 1023 hPa
METAR del 21-09-2017 a las 21:00 UTC
METAR SCIE 212100Z 22017KT CAVOK 14/07 Q1023
Viento: dirección 220 grados, velocidad 17 nudos
Visibilidad: 10 km o más,
    sin nubes bajo los 5.000 pies o bajo del MSA (Mínimo de Seguridad del Aeródromo),
    sin cumulonimbus, y sin fenómenos de tiempo significativo en el aeródromo o alrededores
Temperatura: 14 °C
Rocío: 7 °C
Humedad_relativa: 63%
Presión: 1023 hPa
METAR del 21-09-2017 a las 21:00 UTC
METAR SCIE 212100Z 22017KT CAVOK 14/07 Q1023
Viento: dirección 220 grados, velocidad 17 nudos
Visibilidad: 10 km o más,
    sin nubes bajo los 5.000 pies o bajo del MSA (Mínimo de Seguridad del Aeródromo),
    sin cumulonimbus, y sin fenómenos de tiempo significativo en el aeródromo o alrededores
Temperatura: 14 °C
Rocío: 7 °C
Humedad_relativa: 63%
Presión: 1023 hPa
METAR del 21-09-2017 a las 20:00 UTC
METAR SCIE 212000Z 23017KT CAVOK 14/08 Q1023
Viento: dirección 230 grados, velocidad 17 nudos
Visibilidad: 10 km o más,
    sin nubes bajo los 5.000 pies o bajo del MSA (Mínimo de Seguridad del Aeródromo),
    sin cumulonimbus, y sin fenómenos de tiempo significativo en el aeródromo o alrededores
Temperatura: 14 °C
Rocío: 8 °C
Humedad_relativa: 67%
Presión: 1023 hPa
METAR del 21-09-2017 a las 20:00 UTC
METAR SCIE 212000Z 23017KT CAVOK 14/08 Q1023
Viento: dirección 230 grados, velocidad 17 nudos
Visibilidad: 10 km o más,
    sin nubes bajo los 5.000 pies o bajo del MSA (Mínimo de Seguridad del Aeródromo),
    sin cumulonimbus, y sin fenómenos de tiempo significativo en el aeródromo o alrededores
Temperatura: 14 °C
Rocío: 8 °C
Humedad_relativa: 67%
Presión: 1023 hPa
METAR del 21-09-2017 a las 20:00 UTC
METAR SCIE 212000Z 23017KT CAVOK 14/08 Q1023
Viento: dirección 230 grados, velocidad 17 nudos
Visibilidad: 10 km o más,
    sin nubes bajo los 5.000 pies o bajo del MSA (Mínimo de Seguridad del Aeródromo),
    sin cumulonimbus, y sin fenómenos de tiempo significativo en el aeródromo o alrededores
Temperatura: 14 °C
Rocío: 8 °C
Humedad_relativa: 67%
Presión: 1023 hPa
METAR del 21-09-2017 a las 19:00 UTC
METAR SCIE 211900Z 23017KT CAVOK 14/07 Q1023
Viento: dirección 230 grados, velocidad 17 nudos
Visibilidad: 10 km o más,
    sin nubes bajo los 5.000 pies o bajo del MSA (Mínimo de Seguridad del Aeródromo),
    sin cumulonimbus, y sin fenómenos de tiempo significativo en el aeródromo o alrededores
Temperatura: 14 °C
Rocío: 7 °C
Humedad_relativa: 63%
Presión: 1023 hPa
METAR del 21-09-2017 a las 18:00 UTC
METAR SCIE 211800Z 23015KT CAVOK 15/07 Q1023
Viento: dirección 230 grados, velocidad 15 nudos
Visibilidad: 10 km o más,
    sin nubes bajo los 5.000 pies o bajo del MSA (Mínimo de Seguridad del Aeródromo),
    sin cumulonimbus, y sin fenómenos de tiempo significativo en el aeródromo o alrededores
Temperatura: 15 °C
Rocío: 7 °C
Humedad_relativa: 59%
Presión: 1023 hPa